LFRS/NTE METAR and TAF weather

Enter ICAO airport designator
Station Type Date Time Source
LFRS METAR 2022/06/30 01:00 UTC NOAA

LFRS 300100Z AUTO 21004KT 9999 FEW029 OVC160 13/12 Q1013 TEMPO SCT030TCU


Station Type Date Time Source
LFRS Decoded METAR 2022/06/30 01:00 UTC NOAA

Nantes, France (LFRS) 47-10N 001-36W 27M
Jun 29, 2022 - 09:00 PM EDT / 2022.06.30 0100 UTC
Wind: from the SSW (210 degrees) at 5 MPH (4 KT):0
Visibility: greater than 7 mile(s):0
Sky conditions: overcast
Weather: Towering cumulus clouds observed
Temperature: 55 F (13 C)
Dew Point: 53 F (12 C)
Relative Humidity: 93%
Pressure (altimeter): 29.91 in. Hg (1013 hPa)
ob: LFRS 300100Z AUTO 21004KT 9999 FEW029 OVC160 13/12 Q1013 TEMPO SCT030TCU
cycle: 1

Station Type Date Time Source
LFRS TAF 2022/06/29 18:21 UTC NOAA

TAF LFRS 291700Z 2918/3024 25010KT 9999 BKN035 PROB40
TEMPO 2918/2921 4500 -SHRA BKN030TCU
BECMG 2920/2922 VRB03KT
TEMPO 3003/3012 3000 SHRA BKN030CB
BECMG 3008/3010 25010KT

Example: see airport list